sensor_id;sensor_type;location;lat;lon;timestamp;temperature;humidity
10451;DHT22;5273;51.290;6.918;2023-04-28T00:00:09;11.60;70.40
10451;DHT22;5273;51.290;6.918;2023-04-28T00:02:36;11.60;70.20
10451;DHT22;5273;51.290;6.918;2023-04-28T00:05:03;11.70;70.30
10451;DHT22;5273;51.290;6.918;2023-04-28T00:07:32;11.70;70.30
10451;DHT22;5273;51.290;6.918;2023-04-28T00:09:59;11.70;70.50
10451;DHT22;5273;51.290;6.918;2023-04-28T00:12:26;11.70;71.10
10451;DHT22;5273;51.290;6.918;2023-04-28T00:14:52;11.80;71.10
10451;DHT22;5273;51.290;6.918;2023-04-28T00:17:19;11.80;71.70
10451;DHT22;5273;51.290;6.918;2023-04-28T00:19:46;11.80;73.00
10451;DHT22;5273;51.290;6.918;2023-04-28T00:22:14;11.80;73.10
10451;DHT22;5273;51.290;6.918;2023-04-28T00:24:42;11.90;75.30
10451;DHT22;5273;51.290;6.918;2023-04-28T00:27:09;11.90;75.50
10451;DHT22;5273;51.290;6.918;2023-04-28T00:29:36;11.80;76.00
10451;DHT22;5273;51.290;6.918;2023-04-28T00:32:03;11.80;75.90
10451;DHT22;5273;51.290;6.918;2023-04-28T00:34:31;11.80;77.60
10451;DHT22;5273;51.290;6.918;2023-04-28T00:36:59;11.70;77.90
10451;DHT22;5273;51.290;6.918;2023-04-28T00:39:25;11.80;80.30
10451;DHT22;5273;51.290;6.918;2023-04-28T00:41:54;11.70;79.50
10451;DHT22;5273;51.290;6.918;2023-04-28T00:44:20;11.70;79.90
10451;DHT22;5273;51.290;6.918;2023-04-28T00:46:47;11.70;81.70
10451;DHT22;5273;51.290;6.918;2023-04-28T00:49:15;11.60;82.10
10451;DHT22;5273;51.290;6.918;2023-04-28T00:51:42;11.60;82.30
10451;DHT22;5273;51.290;6.918;2023-04-28T00:54:12;11.70;84.40
10451;DHT22;5273;51.290;6.918;2023-04-28T00:56:39;11.60;83.80
10451;DHT22;5273;51.290;6.918;2023-04-28T00:59:08;11.60;84.00
10451;DHT22;5273;51.290;6.918;2023-04-28T01:01:35;11.60;85.20
10451;DHT22;5273;51.290;6.918;2023-04-28T01:04:02;11.50;86.40
10451;DHT22;5273;51.290;6.918;2023-04-28T01:06:29;11.60;86.10
10451;DHT22;5273;51.290;6.918;2023-04-28T01:08:57;11.50;87.50
10451;DHT22;5273;51.290;6.918;2023-04-28T01:11:24;11.60;89.10
10451;DHT22;5273;51.290;6.918;2023-04-28T01:13:51;11.60;89.80
10451;DHT22;5273;51.290;6.918;2023-04-28T01:16:19;11.60;90.00
10451;DHT22;5273;51.290;6.918;2023-04-28T01:18:47;11.50;90.40
10451;DHT22;5273;51.290;6.918;2023-04-28T01:21:14;11.50;91.00
10451;DHT22;5273;51.290;6.918;2023-04-28T01:23:45;11.30;91.70
10451;DHT22;5273;51.290;6.918;2023-04-28T01:26:12;11.40;92.40
10451;DHT22;5273;51.290;6.918;2023-04-28T01:28:39;11.30;93.10
10451;DHT22;5273;51.290;6.918;2023-04-28T01:31:06;11.20;93.80
10451;DHT22;5273;51.290;6.918;2023-04-28T01:33:32;11.20;94.00
10451;DHT22;5273;51.290;6.918;2023-04-28T01:36:01;11.10;94.30
10451;DHT22;5273;51.290;6.918;2023-04-28T01:38:28;11.10;95.60
10451;DHT22;5273;51.290;6.918;2023-04-28T01:40:56;11.10;96.00
10451;DHT22;5273;51.290;6.918;2023-04-28T01:43:23;11.10;96.70
10451;DHT22;5273;51.290;6.918;2023-04-28T01:45:50;11.00;97.00
10451;DHT22;5273;51.290;6.918;2023-04-28T01:48:17;11.00;97.30
10451;DHT22;5273;51.290;6.918;2023-04-28T01:50:44;11.00;97.90
10451;DHT22;5273;51.290;6.918;2023-04-28T01:53:11;10.90;98.10
10451;DHT22;5273;51.290;6.918;2023-04-28T01:55:38;10.90;98.50
10451;DHT22;5273;51.290;6.918;2023-04-28T01:58:06;10.90;98.70
10451;DHT22;5273;51.290;6.918;2023-04-28T02:00:33;10.80;99.20
10451;DHT22;5273;51.290;6.918;2023-04-28T02:03:00;10.90;99.20
10451;DHT22;5273;51.290;6.918;2023-04-28T02:05:27;10.90;99.40
10451;DHT22;5273;51.290;6.918;2023-04-28T02:07:54;10.80;99.70
10451;DHT22;5273;51.290;6.918;2023-04-28T02:10:21;10.90;99.90
10451;DHT22;5273;51.290;6.918;2023-04-28T02:12:48;10.80;99.90
10451;DHT22;5273;51.290;6.918;2023-04-28T02:15:16;10.80;99.90
10451;DHT22;5273;51.290;6.918;2023-04-28T02:17:44;10.70;99.90
10451;DHT22;5273;51.290;6.918;2023-04-28T02:20:11;10.70;99.90
10451;DHT22;5273;51.290;6.918;2023-04-28T02:22:39;10.70;99.90
10451;DHT22;5273;51.290;6.918;2023-04-28T02:25:06;10.70;99.90
10451;DHT22;5273;51.290;6.918;2023-04-28T02:27:35;10.70;99.90
10451;DHT22;5273;51.290;6.918;2023-04-28T02:30:03;10.70;99.90
10451;DHT22;5273;51.290;6.918;2023-04-28T02:32:32;10.70;99.90
10451;DHT22;5273;51.290;6.918;2023-04-28T02:34:58;10.70;99.90
10451;DHT22;5273;51.290;6.918;2023-04-28T02:37:25;10.70;99.90
10451;DHT22;5273;51.290;6.918;2023-04-28T02:39:52;10.60;99.90
10451;DHT22;5273;51.290;6.918;2023-04-28T02:42:19;10.60;99.90
10451;DHT22;5273;51.290;6.918;2023-04-28T02:44:46;10.70;99.90
10451;DHT22;5273;51.290;6.918;2023-04-28T02:47:13;10.70;99.90
10451;DHT22;5273;51.290;6.918;2023-04-28T02:49:41;10.70;99.90
10451;DHT22;5273;51.290;6.918;2023-04-28T02:52:08;10.70;99.90
10451;DHT22;5273;51.290;6.918;2023-04-28T02:54:35;10.70;99.90
10451;DHT22;5273;51.290;6.918;2023-04-28T02:57:02;10.70;99.90
10451;DHT22;5273;51.290;6.918;2023-04-28T02:59:29;10.60;99.90
10451;DHT22;5273;51.290;6.918;2023-04-28T03:01:56;10.60;99.90
10451;DHT22;5273;51.290;6.918;2023-04-28T03:04:23;10.60;99.90
10451;DHT22;5273;51.290;6.918;2023-04-28T03:06:52;10.60;99.90
10451;DHT22;5273;51.290;6.918;2023-04-28T03:09:18;10.50;99.90
10451;DHT22;5273;51.290;6.918;2023-04-28T03:11:45;10.50;99.90
10451;DHT22;5273;51.290;6.918;2023-04-28T03:14:12;10.40;99.90
10451;DHT22;5273;51.290;6.918;2023-04-28T03:16:39;10.40;99.90
10451;DHT22;5273;51.290;6.918;2023-04-28T03:19:06;10.40;99.90
10451;DHT22;5273;51.290;6.918;2023-04-28T03:21:33;10.30;99.90
10451;DHT22;5273;51.290;6.918;2023-04-28T03:24:01;10.40;99.90
10451;DHT22;5273;51.290;6.918;2023-04-28T03:26:31;10.30;99.90
10451;DHT22;5273;51.290;6.918;2023-04-28T03:28:58;10.30;99.90
10451;DHT22;5273;51.290;6.918;2023-04-28T03:31:25;10.20;99.90
10451;DHT22;5273;51.290;6.918;2023-04-28T03:33:52;10.30;99.90
10451;DHT22;5273;51.290;6.918;2023-04-28T03:36:18;10.30;99.90
10451;DHT22;5273;51.290;6.918;2023-04-28T03:38:45;10.30;99.90
10451;DHT22;5273;51.290;6.918;2023-04-28T03:41:13;10.30;99.90
10451;DHT22;5273;51.290;6.918;2023-04-28T03:43:40;10.30;99.90
10451;DHT22;5273;51.290;6.918;2023-04-28T03:46:07;10.30;99.90
10451;DHT22;5273;51.290;6.918;2023-04-28T03:48:34;10.30;99.90
10451;DHT22;5273;51.290;6.918;2023-04-28T03:51:01;10.30;99.90
10451;DHT22;5273;51.290;6.918;2023-04-28T03:53:28;10.30;99.90
10451;DHT22;5273;51.290;6.918;2023-04-28T03:55:55;10.10;99.90
10451;DHT22;5273;51.290;6.918;2023-04-28T03:58:23;10.20;99.90
10451;DHT22;5273;51.290;6.918;2023-04-28T04:00:50;10.20;99.90
10451;DHT22;5273;51.290;6.918;2023-04-28T04:03:17;10.30;99.90
10451;DHT22;5273;51.290;6.918;2023-04-28T04:05:46;10.20;99.90
10451;DHT22;5273;51.290;6.918;2023-04-28T04:08:13;10.20;99.90
10451;DHT22;5273;51.290;6.918;2023-04-28T04:10:40;10.20;99.90
10451;DHT22;5273;51.290;6.918;2023-04-28T04:13:06;10.20;99.90
10451;DHT22;5273;51.290;6.918;2023-04-28T04:15:35;10.20;99.90
10451;DHT22;5273;51.290;6.918;2023-04-28T04:18:02;10.20;99.90
10451;DHT22;5273;51.290;6.918;2023-04-28T04:20:29;10.20;99.90
10451;DHT22;5273;51.290;6.918;2023-04-28T04:22:56;10.20;99.90
10451;DHT22;5273;51.290;6.918;2023-04-28T04:25:22;10.20;99.90
10451;DHT22;5273;51.290;6.918;2023-04-28T04:27:50;10.20;99.90
10451;DHT22;5273;51.290;6.918;2023-04-28T04:30:17;10.20;99.90
10451;DHT22;5273;51.290;6.918;2023-04-28T04:32:45;10.20;99.90
10451;DHT22;5273;51.290;6.918;2023-04-28T04:35:12;10.20;99.90
10451;DHT22;5273;51.290;6.918;2023-04-28T04:37:39;10.20;99.90
10451;DHT22;5273;51.290;6.918;2023-04-28T04:40:07;10.20;99.90
10451;DHT22;5273;51.290;6.918;2023-04-28T04:42:34;10.20;99.90
10451;DHT22;5273;51.290;6.918;2023-04-28T04:45:01;10.30;99.90
10451;DHT22;5273;51.290;6.918;2023-04-28T04:47:28;10.30;99.90
10451;DHT22;5273;51.290;6.918;2023-04-28T04:49:56;10.30;99.90
10451;DHT22;5273;51.290;6.918;2023-04-28T04:52:23;10.30;99.90
10451;DHT22;5273;51.290;6.918;2023-04-28T04:54:50;10.20;99.90
10451;DHT22;5273;51.290;6.918;2023-04-28T04:57:17;10.30;99.90
10451;DHT22;5273;51.290;6.918;2023-04-28T04:59:44;10.30;99.90
10451;DHT22;5273;51.290;6.918;2023-04-28T05:02:11;10.30;99.90
10451;DHT22;5273;51.290;6.918;2023-04-28T05:04:38;10.30;99.90
10451;DHT22;5273;51.290;6.918;2023-04-28T05:07:06;10.30;99.90
10451;DHT22;5273;51.290;6.918;2023-04-28T05:09:33;10.30;99.90
10451;DHT22;5273;51.290;6.918;2023-04-28T05:12:00;10.30;99.90
10451;DHT22;5273;51.290;6.918;2023-04-28T05:14:26;10.30;99.90
10451;DHT22;5273;51.290;6.918;2023-04-28T05:16:53;10.30;99.90
10451;DHT22;5273;51.290;6.918;2023-04-28T05:19:20;10.40;99.90
10451;DHT22;5273;51.290;6.918;2023-04-28T05:21:47;10.40;99.90
10451;DHT22;5273;51.290;6.918;2023-04-28T05:24:16;10.40;99.90
10451;DHT22;5273;51.290;6.918;2023-04-28T05:26:42;10.30;99.90
10451;DHT22;5273;51.290;6.918;2023-04-28T05:29:10;10.50;99.90
10451;DHT22;5273;51.290;6.918;2023-04-28T05:31:37;10.40;99.90
10451;DHT22;5273;51.290;6.918;2023-04-28T05:34:04;10.40;99.90
10451;DHT22;5273;51.290;6.918;2023-04-28T05:36:31;10.50;99.90
10451;DHT22;5273;51.290;6.918;2023-04-28T05:38:57;10.50;99.90
10451;DHT22;5273;51.290;6.918;2023-04-28T05:41:26;10.60;99.90
10451;DHT22;5273;51.290;6.918;2023-04-28T05:43:53;10.60;99.90
10451;DHT22;5273;51.290;6.918;2023-04-28T05:46:20;10.70;99.90
10451;DHT22;5273;51.290;6.918;2023-04-28T05:48:47;10.60;99.90
10451;DHT22;5273;51.290;6.918;2023-04-28T05:51:14;10.70;99.90
10451;DHT22;5273;51.290;6.918;2023-04-28T05:53:40;10.70;99.90
10451;DHT22;5273;51.290;6.918;2023-04-28T05:56:07;10.80;99.90
10451;DHT22;5273;51.290;6.918;2023-04-28T05:58:36;10.80;99.90
10451;DHT22;5273;51.290;6.918;2023-04-28T06:01:03;10.80;99.90
10451;DHT22;5273;51.290;6.918;2023-04-28T06:03:30;10.90;99.90
10451;DHT22;5273;51.290;6.918;2023-04-28T06:05:57;10.90;99.90
10451;DHT22;5273;51.290;6.918;2023-04-28T06:08:26;11.00;99.90
10451;DHT22;5273;51.290;6.918;2023-04-28T06:10:53;11.00;99.90
10451;DHT22;5273;51.290;6.918;2023-04-28T06:13:20;11.00;99.90
10451;DHT22;5273;51.290;6.918;2023-04-28T06:15:48;11.10;99.90
10451;DHT22;5273;51.290;6.918;2023-04-28T06:18:15;11.20;99.90
10451;DHT22;5273;51.290;6.918;2023-04-28T06:20:42;11.30;99.90
10451;DHT22;5273;51.290;6.918;2023-04-28T06:23:09;11.50;99.90
10451;DHT22;5273;51.290;6.918;2023-04-28T06:25:36;11.60;99.90
10451;DHT22;5273;51.290;6.918;2023-04-28T06:28:03;11.80;99.90
10451;DHT22;5273;51.290;6.918;2023-04-28T06:30:30;12.00;99.90
10451;DHT22;5273;51.290;6.918;2023-04-28T06:32:59;12.10;99.90
10451;DHT22;5273;51.290;6.918;2023-04-28T06:35:27;12.20;99.90
10451;DHT22;5273;51.290;6.918;2023-04-28T06:37:54;12.20;99.90
10451;DHT22;5273;51.290;6.918;2023-04-28T06:40:21;12.30;99.90
10451;DHT22;5273;51.290;6.918;2023-04-28T06:42:47;12.70;99.90
10451;DHT22;5273;51.290;6.918;2023-04-28T06:45:14;12.90;99.90
10451;DHT22;5273;51.290;6.918;2023-04-28T06:47:41;13.00;99.90
10451;DHT22;5273;51.290;6.918;2023-04-28T06:50:10;13.10;99.90
10451;DHT22;5273;51.290;6.918;2023-04-28T06:52:37;13.20;99.90
10451;DHT22;5273;51.290;6.918;2023-04-28T06:55:05;13.30;99.90
10451;DHT22;5273;51.290;6.918;2023-04-28T06:57:32;13.40;99.90
10451;DHT22;5273;51.290;6.918;2023-04-28T06:59:58;13.40;99.90
10451;DHT22;5273;51.290;6.918;2023-04-28T07:02:25;13.40;99.90
10451;DHT22;5273;51.290;6.918;2023-04-28T07:04:52;13.30;99.90
10451;DHT22;5273;51.290;6.918;2023-04-28T07:07:21;13.10;99.90
10451;DHT22;5273;51.290;6.918;2023-04-28T07:09:48;13.00;99.90
10451;DHT22;5273;51.290;6.918;2023-04-28T07:12:16;12.90;99.90
10451;DHT22;5273;51.290;6.918;2023-04-28T07:14:43;12.80;99.90
10451;DHT22;5273;51.290;6.918;2023-04-28T07:17:11;12.80;99.90
10451;DHT22;5273;51.290;6.918;2023-04-28T07:19:37;12.90;99.90
10451;DHT22;5273;51.290;6.918;2023-04-28T07:22:04;12.90;99.90
10451;DHT22;5273;51.290;6.918;2023-04-28T07:24:32;12.80;99.90
10451;DHT22;5273;51.290;6.918;2023-04-28T07:27:00;12.80;99.90
10451;DHT22;5273;51.290;6.918;2023-04-28T07:29:28;12.80;99.90
10451;DHT22;5273;51.290;6.918;2023-04-28T07:31:58;12.90;99.90
10451;DHT22;5273;51.290;6.918;2023-04-28T07:34:25;12.90;99.90
10451;DHT22;5273;51.290;6.918;2023-04-28T07:36:53;13.00;99.90
10451;DHT22;5273;51.290;6.918;2023-04-28T07:39:20;12.90;99.90
10451;DHT22;5273;51.290;6.918;2023-04-28T07:41:48;12.90;99.90
10451;DHT22;5273;51.290;6.918;2023-04-28T07:44:15;12.90;99.90
10451;DHT22;5273;51.290;6.918;2023-04-28T07:46:42;12.90;99.90
10451;DHT22;5273;51.290;6.918;2023-04-28T07:49:09;12.90;99.90
10451;DHT22;5273;51.290;6.918;2023-04-28T07:51:36;12.80;99.90
10451;DHT22;5273;51.290;6.918;2023-04-28T07:54:03;12.80;99.90
10451;DHT22;5273;51.290;6.918;2023-04-28T07:56:30;12.80;99.90
10451;DHT22;5273;51.290;6.918;2023-04-28T07:58:58;12.90;99.90
10451;DHT22;5273;51.290;6.918;2023-04-28T08:01:25;13.00;99.90
10451;DHT22;5273;51.290;6.918;2023-04-28T08:03:52;13.00;99.90
10451;DHT22;5273;51.290;6.918;2023-04-28T08:06:19;13.00;99.90
10451;DHT22;5273;51.290;6.918;2023-04-28T08:08:46;12.90;99.90
10451;DHT22;5273;51.290;6.918;2023-04-28T08:11:13;12.90;99.90
10451;DHT22;5273;51.290;6.918;2023-04-28T08:13:40;12.90;99.90
10451;DHT22;5273;51.290;6.918;2023-04-28T08:16:09;12.90;99.90
10451;DHT22;5273;51.290;6.918;2023-04-28T08:18:35;13.00;99.90
10451;DHT22;5273;51.290;6.918;2023-04-28T08:21:03;13.10;99.90
10451;DHT22;5273;51.290;6.918;2023-04-28T08:23:30;13.30;99.90
10451;DHT22;5273;51.290;6.918;2023-04-28T08:26:00;13.30;99.90
10451;DHT22;5273;51.290;6.918;2023-04-28T08:28:30;13.20;99.90
10451;DHT22;5273;51.290;6.918;2023-04-28T08:30:58;13.30;99.90
10451;DHT22;5273;51.290;6.918;2023-04-28T08:33:26;13.30;99.90
10451;DHT22;5273;51.290;6.918;2023-04-28T08:35:54;13.40;99.90
10451;DHT22;5273;51.290;6.918;2023-04-28T08:38:21;13.40;99.90
10451;DHT22;5273;51.290;6.918;2023-04-28T08:40:48;13.60;99.90
10451;DHT22;5273;51.290;6.918;2023-04-28T08:43:15;13.90;99.90
10451;DHT22;5273;51.290;6.918;2023-04-28T08:45:43;14.10;99.90
10451;DHT22;5273;51.290;6.918;2023-04-28T08:48:16;14.10;99.90
10451;DHT22;5273;51.290;6.918;2023-04-28T08:50:49;14.20;99.90
10451;DHT22;5273;51.290;6.918;2023-04-28T08:53:21;14.30;99.90
10451;DHT22;5273;51.290;6.918;2023-04-28T08:55:51;14.40;99.90
10451;DHT22;5273;51.290;6.918;2023-04-28T08:58:21;14.50;99.90
10451;DHT22;5273;51.290;6.918;2023-04-28T09:00:48;14.50;99.90
10451;DHT22;5273;51.290;6.918;2023-04-28T09:03:15;14.50;99.90
10451;DHT22;5273;51.290;6.918;2023-04-28T09:05:42;14.60;99.90
10451;DHT22;5273;51.290;6.918;2023-04-28T09:08:10;14.60;99.90
10451;DHT22;5273;51.290;6.918;2023-04-28T09:10:37;14.60;99.90
10451;DHT22;5273;51.290;6.918;2023-04-28T09:13:04;14.60;99.90
10451;DHT22;5273;51.290;6.918;2023-04-28T09:15:32;14.40;99.90
10451;DHT22;5273;51.290;6.918;2023-04-28T09:18:01;14.30;99.90
10451;DHT22;5273;51.290;6.918;2023-04-28T09:20:29;14.20;99.90
10451;DHT22;5273;51.290;6.918;2023-04-28T09:23:11;14.10;99.90
10451;DHT22;5273;51.290;6.918;2023-04-28T09:25:40;14.10;99.90
10451;DHT22;5273;51.290;6.918;2023-04-28T09:28:21;14.10;99.90
10451;DHT22;5273;51.290;6.918;2023-04-28T09:30:48;14.10;99.90
10451;DHT22;5273;51.290;6.918;2023-04-28T09:33:14;14.00;99.90
10451;DHT22;5273;51.290;6.918;2023-04-28T09:35:42;14.00;99.90
10451;DHT22;5273;51.290;6.918;2023-04-28T09:38:10;14.20;99.90
10451;DHT22;5273;51.290;6.918;2023-04-28T09:40:52;14.20;99.90
10451;DHT22;5273;51.290;6.918;2023-04-28T09:43:26;14.20;99.90
10451;DHT22;5273;51.290;6.918;2023-04-28T09:45:53;14.10;99.90
10451;DHT22;5273;51.290;6.918;2023-04-28T09:48:29;14.10;99.90
10451;DHT22;5273;51.290;6.918;2023-04-28T09:50:56;14.10;99.90
10451;DHT22;5273;51.290;6.918;2023-04-28T09:53:23;14.10;99.90
10451;DHT22;5273;51.290;6.918;2023-04-28T09:55:53;14.10;99.90
10451;DHT22;5273;51.290;6.918;2023-04-28T09:58:22;14.10;99.90
10451;DHT22;5273;51.290;6.918;2023-04-28T10:00:51;14.10;99.90
10451;DHT22;5273;51.290;6.918;2023-04-28T10:03:21;14.00;99.90
10451;DHT22;5273;51.290;6.918;2023-04-28T10:05:49;13.90;99.90
10451;DHT22;5273;51.290;6.918;2023-04-28T10:08:18;13.90;99.90
10451;DHT22;5273;51.290;6.918;2023-04-28T10:10:47;13.90;99.90
10451;DHT22;5273;51.290;6.918;2023-04-28T10:13:16;13.90;99.90
10451;DHT22;5273;51.290;6.918;2023-04-28T10:15:45;14.00;99.90
10451;DHT22;5273;51.290;6.918;2023-04-28T10:18:12;13.90;99.90
10451;DHT22;5273;51.290;6.918;2023-04-28T10:20:41;14.00;99.90
10451;DHT22;5273;51.290;6.918;2023-04-28T10:26:10;13.80;99.90
10451;DHT22;5273;51.290;6.918;2023-04-28T10:28:45;13.80;99.90
10451;DHT22;5273;51.290;6.918;2023-04-28T10:31:13;13.70;99.90
10451;DHT22;5273;51.290;6.918;2023-04-28T10:33:41;13.80;99.90
10451;DHT22;5273;51.290;6.918;2023-04-28T10:36:08;13.90;99.90
10451;DHT22;5273;51.290;6.918;2023-04-28T10:39:07;14.00;99.90
10451;DHT22;5273;51.290;6.918;2023-04-28T10:41:34;14.00;99.90
10451;DHT22;5273;51.290;6.918;2023-04-28T10:47:07;14.00;99.90
10451;DHT22;5273;51.290;6.918;2023-04-28T10:50:06;14.10;99.90
10451;DHT22;5273;51.290;6.918;2023-04-28T10:52:47;14.10;99.90
10451;DHT22;5273;51.290;6.918;2023-04-28T10:55:28;14.20;99.90
10451;DHT22;5273;51.290;6.918;2023-04-28T10:58:32;14.40;99.90
10451;DHT22;5273;51.290;6.918;2023-04-28T11:01:23;14.50;99.90
10451;DHT22;5273;51.290;6.918;2023-04-28T11:03:51;14.50;99.90
10451;DHT22;5273;51.290;6.918;2023-04-28T11:06:25;14.40;99.90
10451;DHT22;5273;51.290;6.918;2023-04-28T11:08:53;14.40;99.90
10451;DHT22;5273;51.290;6.918;2023-04-28T11:11:22;14.30;99.90
10451;DHT22;5273;51.290;6.918;2023-04-28T11:13:52;14.40;99.90
10451;DHT22;5273;51.290;6.918;2023-04-28T11:16:22;14.40;99.90
10451;DHT22;5273;51.290;6.918;2023-04-28T11:19:00;14.40;99.90
10451;DHT22;5273;51.290;6.918;2023-04-28T11:21:31;14.40;99.90
10451;DHT22;5273;51.290;6.918;2023-04-28T11:23:58;14.50;99.90
10451;DHT22;5273;51.290;6.918;2023-04-28T11:26:26;14.50;99.90
10451;DHT22;5273;51.290;6.918;2023-04-28T11:28:56;14.60;99.90
10451;DHT22;5273;51.290;6.918;2023-04-28T11:31:24;14.60;99.90
10451;DHT22;5273;51.290;6.918;2023-04-28T11:34:03;14.70;99.90
10451;DHT22;5273;51.290;6.918;2023-04-28T11:36:32;14.70;99.90
10451;DHT22;5273;51.290;6.918;2023-04-28T11:39:00;14.90;99.90
10451;DHT22;5273;51.290;6.918;2023-04-28T11:41:29;14.90;99.90
10451;DHT22;5273;51.290;6.918;2023-04-28T11:43:58;14.90;99.90
10451;DHT22;5273;51.290;6.918;2023-04-28T11:46:25;15.00;99.90
10451;DHT22;5273;51.290;6.918;2023-04-28T11:49:03;15.10;99.90
10451;DHT22;5273;51.290;6.918;2023-04-28T11:51:35;15.10;99.90
10451;DHT22;5273;51.290;6.918;2023-04-28T11:54:03;15.30;99.90
10451;DHT22;5273;51.290;6.918;2023-04-28T11:56:36;15.40;99.90
10451;DHT22;5273;51.290;6.918;2023-04-28T11:59:06;15.50;99.90
10451;DHT22;5273;51.290;6.918;2023-04-28T12:01:42;15.60;99.90
10451;DHT22;5273;51.290;6.918;2023-04-28T12:04:09;15.70;99.90
10451;DHT22;5273;51.290;6.918;2023-04-28T12:06:37;15.90;99.90
10451;DHT22;5273;51.290;6.918;2023-04-28T12:09:15;16.00;99.90
10451;DHT22;5273;51.290;6.918;2023-04-28T12:11:52;16.10;99.90
10451;DHT22;5273;51.290;6.918;2023-04-28T12:14:20;16.40;99.90
10451;DHT22;5273;51.290;6.918;2023-04-28T12:16:47;16.30;99.90
10451;DHT22;5273;51.290;6.918;2023-04-28T12:19:15;16.60;99.90
10451;DHT22;5273;51.290;6.918;2023-04-28T12:21:58;16.70;99.90
10451;DHT22;5273;51.290;6.918;2023-04-28T12:24:25;16.90;99.90
10451;DHT22;5273;51.290;6.918;2023-04-28T12:26:52;16.90;99.90
10451;DHT22;5273;51.290;6.918;2023-04-28T12:29:37;17.00;99.90
10451;DHT22;5273;51.290;6.918;2023-04-28T12:32:06;17.30;99.90
10451;DHT22;5273;51.290;6.918;2023-04-28T12:34:33;17.40;99.90
10451;DHT22;5273;51.290;6.918;2023-04-28T12:37:00;17.60;99.90
10451;DHT22;5273;51.290;6.918;2023-04-28T12:39:30;18.00;99.90
10451;DHT22;5273;51.290;6.918;2023-04-28T12:41:57;18.40;99.90
10451;DHT22;5273;51.290;6.918;2023-04-28T12:44:25;18.60;99.90
10451;DHT22;5273;51.290;6.918;2023-04-28T12:46:54;18.80;99.90
10451;DHT22;5273;51.290;6.918;2023-04-28T12:49:21;19.00;99.90
10451;DHT22;5273;51.290;6.918;2023-04-28T12:51:48;19.20;99.90
10451;DHT22;5273;51.290;6.918;2023-04-28T12:54:15;19.40;99.90
10451;DHT22;5273;51.290;6.918;2023-04-28T12:56:42;19.50;99.90
10451;DHT22;5273;51.290;6.918;2023-04-28T12:59:09;19.50;99.90
10451;DHT22;5273;51.290;6.918;2023-04-28T13:01:36;19.50;99.90
10451;DHT22;5273;51.290;6.918;2023-04-28T13:04:05;19.40;99.90
10451;DHT22;5273;51.290;6.918;2023-04-28T13:06:32;19.30;99.90
10451;DHT22;5273;51.290;6.918;2023-04-28T13:08:59;19.30;99.90
10451;DHT22;5273;51.290;6.918;2023-04-28T13:11:28;19.30;99.90
10451;DHT22;5273;51.290;6.918;2023-04-28T13:13:55;19.50;99.90
10451;DHT22;5273;51.290;6.918;2023-04-28T13:16:22;19.60;99.90
10451;DHT22;5273;51.290;6.918;2023-04-28T13:18:54;19.70;99.90
10451;DHT22;5273;51.290;6.918;2023-04-28T13:21:23;19.70;99.90
10451;DHT22;5273;51.290;6.918;2023-04-28T13:23:51;19.70;99.90
10451;DHT22;5273;51.290;6.918;2023-04-28T13:26:18;19.80;99.90
10451;DHT22;5273;51.290;6.918;2023-04-28T13:28:45;19.80;99.90
10451;DHT22;5273;51.290;6.918;2023-04-28T13:31:12;19.90;99.90
10451;DHT22;5273;51.290;6.918;2023-04-28T13:33:39;20.00;99.90
10451;DHT22;5273;51.290;6.918;2023-04-28T13:36:06;20.00;99.90
10451;DHT22;5273;51.290;6.918;2023-04-28T13:38:35;20.10;99.90
10451;DHT22;5273;51.290;6.918;2023-04-28T13:41:02;20.20;99.90
10451;DHT22;5273;51.290;6.918;2023-04-28T13:43:29;20.10;99.90
10451;DHT22;5273;51.290;6.918;2023-04-28T13:45:56;20.20;99.90
10451;DHT22;5273;51.290;6.918;2023-04-28T13:48:23;20.30;99.90
10451;DHT22;5273;51.290;6.918;2023-04-28T13:50:52;20.50;99.90
10451;DHT22;5273;51.290;6.918;2023-04-28T13:53:19;20.50;99.90
10451;DHT22;5273;51.290;6.918;2023-04-28T13:55:48;20.60;99.90
10451;DHT22;5273;51.290;6.918;2023-04-28T13:58:16;20.50;99.90
10451;DHT22;5273;51.290;6.918;2023-04-28T14:00:42;20.50;99.90
10451;DHT22;5273;51.290;6.918;2023-04-28T14:03:09;20.50;99.90
10451;DHT22;5273;51.290;6.918;2023-04-28T14:05:36;20.40;99.30
10451;DHT22;5273;51.290;6.918;2023-04-28T14:08:03;20.40;99.20
10451;DHT22;5273;51.290;6.918;2023-04-28T14:10:30;20.30;99.40
10451;DHT22;5273;51.290;6.918;2023-04-28T14:12:58;20.20;99.90
10451;DHT22;5273;51.290;6.918;2023-04-28T14:15:25;20.30;99.90
10451;DHT22;5273;51.290;6.918;2023-04-28T14:17:52;20.30;99.80
10451;DHT22;5273;51.290;6.918;2023-04-28T14:20:19;20.40;99.60
10451;DHT22;5273;51.290;6.918;2023-04-28T14:22:46;20.50;99.60
10451;DHT22;5273;51.290;6.918;2023-04-28T14:25:13;20.60;99.90
10451;DHT22;5273;51.290;6.918;2023-04-28T14:27:40;20.60;99.00
10451;DHT22;5273;51.290;6.918;2023-04-28T14:30:08;20.60;99.10
10451;DHT22;5273;51.290;6.918;2023-04-28T14:32:35;20.40;99.40
10451;DHT22;5273;51.290;6.918;2023-04-28T14:35:03;20.30;99.20
10451;DHT22;5273;51.290;6.918;2023-04-28T14:37:31;20.10;99.10
10451;DHT22;5273;51.290;6.918;2023-04-28T14:39:58;20.00;99.10
10451;DHT22;5273;51.290;6.918;2023-04-28T14:42:27;20.00;99.60
10451;DHT22;5273;51.290;6.918;2023-04-28T14:44:55;20.00;99.70
10451;DHT22;5273;51.290;6.918;2023-04-28T14:47:23;20.10;98.90
10451;DHT22;5273;51.290;6.918;2023-04-28T14:49:51;20.10;98.40
10451;DHT22;5273;51.290;6.918;2023-04-28T14:52:18;20.10;98.20
10451;DHT22;5273;51.290;6.918;2023-04-28T14:54:47;20.10;97.80
10451;DHT22;5273;51.290;6.918;2023-04-28T14:57:13;20.00;97.30
10451;DHT22;5273;51.290;6.918;2023-04-28T14:59:41;19.90;97.60
10451;DHT22;5273;51.290;6.918;2023-04-28T15:02:08;19.80;97.60
10451;DHT22;5273;51.290;6.918;2023-04-28T15:04:37;19.70;97.40
10451;DHT22;5273;51.290;6.918;2023-04-28T15:07:04;19.60;97.60
10451;DHT22;5273;51.290;6.918;2023-04-28T15:09:32;19.40;97.70
10451;DHT22;5273;51.290;6.918;2023-04-28T15:12:00;19.20;97.70
10451;DHT22;5273;51.290;6.918;2023-04-28T15:14:27;19.10;98.10
10451;DHT22;5273;51.290;6.918;2023-04-28T15:16:54;19.00;98.30
10451;DHT22;5273;51.290;6.918;2023-04-28T15:19:20;18.80;98.70
10451;DHT22;5273;51.290;6.918;2023-04-28T15:21:49;18.70;99.40
10451;DHT22;5273;51.290;6.918;2023-04-28T15:24:18;18.60;99.70
10451;DHT22;5273;51.290;6.918;2023-04-28T15:26:45;18.50;99.90
10451;DHT22;5273;51.290;6.918;2023-04-28T15:29:12;18.30;99.90
10451;DHT22;5273;51.290;6.918;2023-04-28T15:31:39;18.30;99.90
10451;DHT22;5273;51.290;6.918;2023-04-28T15:34:06;18.40;99.90
10451;DHT22;5273;51.290;6.918;2023-04-28T15:36:36;18.10;99.90
10451;DHT22;5273;51.290;6.918;2023-04-28T15:39:05;17.90;99.90
10451;DHT22;5273;51.290;6.918;2023-04-28T15:41:32;17.60;99.90
10451;DHT22;5273;51.290;6.918;2023-04-28T15:43:59;17.50;99.90
10451;DHT22;5273;51.290;6.918;2023-04-28T15:46:26;17.40;99.90
10451;DHT22;5273;51.290;6.918;2023-04-28T15:48:53;17.30;99.90
10451;DHT22;5273;51.290;6.918;2023-04-28T15:51:20;17.30;99.90
10451;DHT22;5273;51.290;6.918;2023-04-28T15:53:47;17.30;99.90
10451;DHT22;5273;51.290;6.918;2023-04-28T15:56:16;17.20;99.90